sensor_id;sensor_type;location;lat;lon;timestamp;P1;durP1;ratioP1;P2;durP2;ratioP2
71343;SDS011;59146;43.850;25.948;2023-04-06T00:00:18;20.48;;;15.98;;
71343;SDS011;59146;43.850;25.948;2023-04-06T00:02:43;24.15;;;16.83;;
71343;SDS011;59146;43.850;25.948;2023-04-06T00:05:09;23.50;;;16.48;;
71343;SDS011;59146;43.850;25.948;2023-04-06T00:07:35;21.27;;;16.08;;
71343;SDS011;59146;43.850;25.948;2023-04-06T00:10:00;21.48;;;15.80;;
71343;SDS011;59146;43.850;25.948;2023-04-06T00:12:26;20.92;;;15.32;;
71343;SDS011;59146;43.850;25.948;2023-04-06T00:14:53;22.65;;;16.00;;
71343;SDS011;59146;43.850;25.948;2023-04-06T00:17:18;23.15;;;16.15;;
71343;SDS011;59146;43.850;25.948;2023-04-06T00:19:44;23.67;;;16.33;;
71343;SDS011;59146;43.850;25.948;2023-04-06T00:22:09;20.83;;;16.05;;
71343;SDS011;59146;43.850;25.948;2023-04-06T00:24:35;24.33;;;17.05;;
71343;SDS011;59146;43.850;25.948;2023-04-06T00:27:00;23.75;;;16.17;;
71343;SDS011;59146;43.850;25.948;2023-04-06T00:29:26;25.10;;;18.23;;
71343;SDS011;59146;43.850;25.948;2023-04-06T00:31:52;22.67;;;16.38;;
71343;SDS011;59146;43.850;25.948;2023-04-06T00:34:17;21.15;;;15.02;;
71343;SDS011;59146;43.850;25.948;2023-04-06T00:36:42;22.95;;;16.23;;
71343;SDS011;59146;43.850;25.948;2023-04-06T00:39:08;22.50;;;16.35;;
71343;SDS011;59146;43.850;25.948;2023-04-06T00:41:33;22.58;;;16.40;;
71343;SDS011;59146;43.850;25.948;2023-04-06T00:43:59;22.05;;;15.35;;
71343;SDS011;59146;43.850;25.948;2023-04-06T00:46:24;23.48;;;16.27;;
71343;SDS011;59146;43.850;25.948;2023-04-06T00:48:50;21.48;;;16.90;;
71343;SDS011;59146;43.850;25.948;2023-04-06T00:51:15;23.55;;;16.33;;
71343;SDS011;59146;43.850;25.948;2023-04-06T00:53:41;23.25;;;15.90;;
71343;SDS011;59146;43.850;25.948;2023-04-06T00:56:06;22.58;;;16.83;;
71343;SDS011;59146;43.850;25.948;2023-04-06T00:58:34;23.95;;;16.25;;
71343;SDS011;59146;43.850;25.948;2023-04-06T01:01:03;24.70;;;17.20;;
71343;SDS011;59146;43.850;25.948;2023-04-06T01:03:28;24.90;;;16.40;;
71343;SDS011;59146;43.850;25.948;2023-04-06T01:05:53;19.30;;;15.88;;
71343;SDS011;59146;43.850;25.948;2023-04-06T01:08:23;21.08;;;15.02;;
71343;SDS011;59146;43.850;25.948;2023-04-06T01:10:49;22.35;;;16.00;;
71343;SDS011;59146;43.850;25.948;2023-04-06T01:13:15;21.08;;;14.90;;
71343;SDS011;59146;43.850;25.948;2023-04-06T01:15:40;21.23;;;15.27;;
71343;SDS011;59146;43.850;25.948;2023-04-06T01:18:07;19.77;;;14.65;;
71343;SDS011;59146;43.850;25.948;2023-04-06T01:20:35;20.17;;;14.95;;
71343;SDS011;59146;43.850;25.948;2023-04-06T01:23:01;20.35;;;15.45;;
71343;SDS011;59146;43.850;25.948;2023-04-06T01:25:26;19.92;;;15.25;;
71343;SDS011;59146;43.850;25.948;2023-04-06T01:27:52;19.88;;;14.90;;
71343;SDS011;59146;43.850;25.948;2023-04-06T01:30:17;21.42;;;14.52;;
71343;SDS011;59146;43.850;25.948;2023-04-06T01:32:43;21.20;;;15.27;;
71343;SDS011;59146;43.850;25.948;2023-04-06T01:35:09;21.35;;;14.93;;
71343;SDS011;59146;43.850;25.948;2023-04-06T01:37:35;17.52;;;13.38;;
71343;SDS011;59146;43.850;25.948;2023-04-06T01:40:02;19.75;;;14.20;;
71343;SDS011;59146;43.850;25.948;2023-04-06T01:42:28;19.80;;;15.18;;
71343;SDS011;59146;43.850;25.948;2023-04-06T01:44:53;18.05;;;13.18;;
71343;SDS011;59146;43.850;25.948;2023-04-06T01:47:19;19.52;;;14.32;;
71343;SDS011;59146;43.850;25.948;2023-04-06T01:49:45;20.02;;;14.10;;
71343;SDS011;59146;43.850;25.948;2023-04-06T01:52:10;18.70;;;14.63;;
71343;SDS011;59146;43.850;25.948;2023-04-06T01:54:36;20.50;;;14.43;;
71343;SDS011;59146;43.850;25.948;2023-04-06T01:57:01;20.15;;;14.43;;
71343;SDS011;59146;43.850;25.948;2023-04-06T01:59:26;18.77;;;14.40;;
71343;SDS011;59146;43.850;25.948;2023-04-06T02:01:52;20.15;;;13.90;;
71343;SDS011;59146;43.850;25.948;2023-04-06T02:04:17;26.05;;;15.02;;
71343;SDS011;59146;43.850;25.948;2023-04-06T02:06:43;18.00;;;14.38;;
71343;SDS011;59146;43.850;25.948;2023-04-06T02:09:08;19.80;;;13.32;;
71343;SDS011;59146;43.850;25.948;2023-04-06T02:11:34;22.73;;;13.65;;
71343;SDS011;59146;43.850;25.948;2023-04-06T02:14:00;21.02;;;13.48;;
71343;SDS011;59146;43.850;25.948;2023-04-06T02:16:26;19.42;;;14.05;;
71343;SDS011;59146;43.850;25.948;2023-04-06T02:18:51;17.92;;;13.50;;
71343;SDS011;59146;43.850;25.948;2023-04-06T02:21:16;18.85;;;13.93;;
71343;SDS011;59146;43.850;25.948;2023-04-06T02:23:45;20.67;;;14.68;;
71343;SDS011;59146;43.850;25.948;2023-04-06T02:26:14;19.98;;;14.15;;
71343;SDS011;59146;43.850;25.948;2023-04-06T02:28:40;18.00;;;13.57;;
71343;SDS011;59146;43.850;25.948;2023-04-06T02:31:05;17.75;;;14.55;;
71343;SDS011;59146;43.850;25.948;2023-04-06T02:33:31;19.92;;;13.85;;
71343;SDS011;59146;43.850;25.948;2023-04-06T02:35:56;19.02;;;14.15;;
71343;SDS011;59146;43.850;25.948;2023-04-06T02:38:21;19.23;;;14.45;;
71343;SDS011;59146;43.850;25.948;2023-04-06T02:40:47;21.30;;;14.77;;
71343;SDS011;59146;43.850;25.948;2023-04-06T02:43:12;19.92;;;14.45;;
71343;SDS011;59146;43.850;25.948;2023-04-06T02:45:38;21.88;;;16.48;;
71343;SDS011;59146;43.850;25.948;2023-04-06T02:48:03;17.73;;;13.15;;
71343;SDS011;59146;43.850;25.948;2023-04-06T02:50:29;20.42;;;14.52;;
71343;SDS011;59146;43.850;25.948;2023-04-06T02:52:55;20.10;;;13.88;;
71343;SDS011;59146;43.850;25.948;2023-04-06T02:55:20;20.40;;;14.27;;
71343;SDS011;59146;43.850;25.948;2023-04-06T02:57:45;18.88;;;15.00;;
71343;SDS011;59146;43.850;25.948;2023-04-06T03:00:11;21.67;;;14.55;;
71343;SDS011;59146;43.850;25.948;2023-04-06T03:02:37;18.30;;;14.00;;
71343;SDS011;59146;43.850;25.948;2023-04-06T03:05:03;19.88;;;14.70;;
71343;SDS011;59146;43.850;25.948;2023-04-06T03:07:29;20.73;;;13.50;;
71343;SDS011;59146;43.850;25.948;2023-04-06T03:09:54;22.30;;;15.32;;
71343;SDS011;59146;43.850;25.948;2023-04-06T03:12:20;32.08;;;15.27;;
71343;SDS011;59146;43.850;25.948;2023-04-06T03:14:45;21.33;;;15.02;;
71343;SDS011;59146;43.850;25.948;2023-04-06T03:17:11;18.70;;;13.60;;
71343;SDS011;59146;43.850;25.948;2023-04-06T03:19:36;20.13;;;14.23;;
71343;SDS011;59146;43.850;25.948;2023-04-06T03:22:02;18.48;;;14.07;;
71343;SDS011;59146;43.850;25.948;2023-04-06T03:24:27;22.85;;;15.57;;
71343;SDS011;59146;43.850;25.948;2023-04-06T03:26:53;20.58;;;15.05;;
71343;SDS011;59146;43.850;25.948;2023-04-06T03:29:18;20.40;;;14.68;;
71343;SDS011;59146;43.850;25.948;2023-04-06T03:31:44;21.48;;;15.02;;
71343;SDS011;59146;43.850;25.948;2023-04-06T03:34:09;21.15;;;15.27;;
71343;SDS011;59146;43.850;25.948;2023-04-06T03:36:35;20.50;;;15.45;;
71343;SDS011;59146;43.850;25.948;2023-04-06T03:39:00;20.95;;;14.52;;
71343;SDS011;59146;43.850;25.948;2023-04-06T03:41:26;23.58;;;16.67;;
71343;SDS011;59146;43.850;25.948;2023-04-06T03:43:52;22.48;;;16.23;;
71343;SDS011;59146;43.850;25.948;2023-04-06T03:46:17;26.63;;;16.52;;
71343;SDS011;59146;43.850;25.948;2023-04-06T03:48:43;22.92;;;15.02;;
71343;SDS011;59146;43.850;25.948;2023-04-06T03:51:08;23.35;;;15.35;;
71343;SDS011;59146;43.850;25.948;2023-04-06T03:53:34;21.10;;;15.23;;
71343;SDS011;59146;43.850;25.948;2023-04-06T03:56:01;23.10;;;15.95;;
71343;SDS011;59146;43.850;25.948;2023-04-06T03:58:27;24.83;;;16.70;;
71343;SDS011;59146;43.850;25.948;2023-04-06T04:00:52;23.15;;;16.85;;
71343;SDS011;59146;43.850;25.948;2023-04-06T04:03:18;25.42;;;16.70;;
71343;SDS011;59146;43.850;25.948;2023-04-06T04:05:43;24.92;;;16.50;;
71343;SDS011;59146;43.850;25.948;2023-04-06T04:08:09;24.27;;;17.40;;
71343;SDS011;59146;43.850;25.948;2023-04-06T04:10:34;22.42;;;15.93;;
71343;SDS011;59146;43.850;25.948;2023-04-06T04:12:59;23.30;;;17.10;;
71343;SDS011;59146;43.850;25.948;2023-04-06T04:15:25;25.55;;;16.63;;
71343;SDS011;59146;43.850;25.948;2023-04-06T04:17:50;27.40;;;16.60;;
71343;SDS011;59146;43.850;25.948;2023-04-06T04:20:16;25.75;;;17.83;;
71343;SDS011;59146;43.850;25.948;2023-04-06T04:22:42;25.27;;;17.02;;
71343;SDS011;59146;43.850;25.948;2023-04-06T04:25:07;25.13;;;17.80;;
71343;SDS011;59146;43.850;25.948;2023-04-06T04:27:33;25.90;;;17.08;;
71343;SDS011;59146;43.850;25.948;2023-04-06T04:29:59;25.25;;;17.23;;
71343;SDS011;59146;43.850;25.948;2023-04-06T04:32:25;25.55;;;17.75;;
71343;SDS011;59146;43.850;25.948;2023-04-06T04:34:52;25.25;;;17.33;;
71343;SDS011;59146;43.850;25.948;2023-04-06T04:37:18;37.80;;;19.05;;
71343;SDS011;59146;43.850;25.948;2023-04-06T04:39:44;29.77;;;18.67;;
71343;SDS011;59146;43.850;25.948;2023-04-06T04:42:10;32.95;;;20.80;;
71343;SDS011;59146;43.850;25.948;2023-04-06T04:44:36;27.70;;;20.15;;
71343;SDS011;59146;43.850;25.948;2023-04-06T04:47:01;25.83;;;19.80;;
71343;SDS011;59146;43.850;25.948;2023-04-06T04:49:27;38.17;;;20.02;;
71343;SDS011;59146;43.850;25.948;2023-04-06T04:51:52;26.05;;;17.85;;
71343;SDS011;59146;43.850;25.948;2023-04-06T04:54:18;36.33;;;18.67;;
71343;SDS011;59146;43.850;25.948;2023-04-06T04:56:44;35.65;;;20.05;;
71343;SDS011;59146;43.850;25.948;2023-04-06T04:59:10;28.95;;;17.90;;
71343;SDS011;59146;43.850;25.948;2023-04-06T05:01:35;28.73;;;20.30;;
71343;SDS011;59146;43.850;25.948;2023-04-06T05:04:01;28.85;;;19.30;;
71343;SDS011;59146;43.850;25.948;2023-04-06T05:06:26;27.65;;;18.63;;
71343;SDS011;59146;43.850;25.948;2023-04-06T05:08:52;29.33;;;18.52;;
71343;SDS011;59146;43.850;25.948;2023-04-06T05:11:17;28.15;;;18.50;;
71343;SDS011;59146;43.850;25.948;2023-04-06T05:13:43;27.27;;;18.05;;
71343;SDS011;59146;43.850;25.948;2023-04-06T05:16:08;25.10;;;19.20;;
71343;SDS011;59146;43.850;25.948;2023-04-06T05:18:34;24.95;;;17.10;;
71343;SDS011;59146;43.850;25.948;2023-04-06T05:20:59;29.80;;;18.10;;
71343;SDS011;59146;43.850;25.948;2023-04-06T05:23:25;31.85;;;19.10;;
71343;SDS011;59146;43.850;25.948;2023-04-06T05:25:51;26.23;;;18.85;;
71343;SDS011;59146;43.850;25.948;2023-04-06T05:28:16;22.55;;;16.85;;
71343;SDS011;59146;43.850;25.948;2023-04-06T05:30:43;23.83;;;17.52;;
71343;SDS011;59146;43.850;25.948;2023-04-06T05:33:09;29.83;;;17.35;;
71343;SDS011;59146;43.850;25.948;2023-04-06T05:35:36;29.92;;;18.67;;
71343;SDS011;59146;43.850;25.948;2023-04-06T05:38:01;28.45;;;18.00;;
71343;SDS011;59146;43.850;25.948;2023-04-06T05:40:27;25.67;;;17.25;;
71343;SDS011;59146;43.850;25.948;2023-04-06T05:42:52;28.45;;;18.73;;
71343;SDS011;59146;43.850;25.948;2023-04-06T05:45:18;27.80;;;17.98;;
71343;SDS011;59146;43.850;25.948;2023-04-06T05:47:44;27.23;;;18.52;;
71343;SDS011;59146;43.850;25.948;2023-04-06T05:50:10;27.42;;;18.27;;
71343;SDS011;59146;43.850;25.948;2023-04-06T05:52:37;24.98;;;17.88;;
71343;SDS011;59146;43.850;25.948;2023-04-06T05:55:03;27.08;;;18.00;;
71343;SDS011;59146;43.850;25.948;2023-04-06T05:57:29;24.88;;;18.30;;
71343;SDS011;59146;43.850;25.948;2023-04-06T05:59:54;29.42;;;19.90;;
71343;SDS011;59146;43.850;25.948;2023-04-06T06:02:20;28.05;;;18.50;;
71343;SDS011;59146;43.850;25.948;2023-04-06T06:04:46;32.83;;;18.80;;
71343;SDS011;59146;43.850;25.948;2023-04-06T06:07:12;25.17;;;18.05;;
71343;SDS011;59146;43.850;25.948;2023-04-06T06:09:37;27.25;;;18.23;;
71343;SDS011;59146;43.850;25.948;2023-04-06T06:12:02;25.73;;;18.17;;
71343;SDS011;59146;43.850;25.948;2023-04-06T06:14:28;29.00;;;18.35;;
71343;SDS011;59146;43.850;25.948;2023-04-06T06:16:54;30.13;;;18.92;;
71343;SDS011;59146;43.850;25.948;2023-04-06T06:19:19;29.20;;;18.02;;
71343;SDS011;59146;43.850;25.948;2023-04-06T06:21:45;29.05;;;18.52;;
71343;SDS011;59146;43.850;25.948;2023-04-06T06:24:11;22.77;;;17.67;;
71343;SDS011;59146;43.850;25.948;2023-04-06T06:26:36;32.13;;;19.05;;
71343;SDS011;59146;43.850;25.948;2023-04-06T06:29:03;30.17;;;17.55;;
71343;SDS011;59146;43.850;25.948;2023-04-06T06:31:30;27.10;;;18.77;;
71343;SDS011;59146;43.850;25.948;2023-04-06T06:33:55;28.85;;;18.65;;
71343;SDS011;59146;43.850;25.948;2023-04-06T06:36:21;30.30;;;22.00;;
71343;SDS011;59146;43.850;25.948;2023-04-06T06:38:46;31.85;;;18.05;;
71343;SDS011;59146;43.850;25.948;2023-04-06T06:41:12;29.25;;;17.80;;
71343;SDS011;59146;43.850;25.948;2023-04-06T06:43:38;28.40;;;18.08;;
71343;SDS011;59146;43.850;25.948;2023-04-06T06:46:03;26.35;;;18.15;;
71343;SDS011;59146;43.850;25.948;2023-04-06T06:48:29;30.85;;;19.75;;
71343;SDS011;59146;43.850;25.948;2023-04-06T06:50:55;29.05;;;18.58;;
71343;SDS011;59146;43.850;25.948;2023-04-06T06:53:21;33.28;;;18.75;;
71343;SDS011;59146;43.850;25.948;2023-04-06T06:55:47;25.30;;;17.58;;
71343;SDS011;59146;43.850;25.948;2023-04-06T06:58:17;28.25;;;18.27;;
71343;SDS011;59146;43.850;25.948;2023-04-06T07:00:43;25.73;;;18.67;;
71343;SDS011;59146;43.850;25.948;2023-04-06T07:03:09;27.90;;;17.92;;
71343;SDS011;59146;43.850;25.948;2023-04-06T07:05:34;25.63;;;16.20;;
71343;SDS011;59146;43.850;25.948;2023-04-06T07:08:00;23.58;;;16.63;;
71343;SDS011;59146;43.850;25.948;2023-04-06T07:10:26;26.80;;;16.58;;
71343;SDS011;59146;43.850;25.948;2023-04-06T07:12:51;24.92;;;16.77;;
71343;SDS011;59146;43.850;25.948;2023-04-06T07:15:17;27.38;;;16.52;;
71343;SDS011;59146;43.850;25.948;2023-04-06T07:17:42;25.88;;;16.75;;
71343;SDS011;59146;43.850;25.948;2023-04-06T07:20:10;25.55;;;16.70;;
71343;SDS011;59146;43.850;25.948;2023-04-06T07:22:37;23.23;;;16.05;;
71343;SDS011;59146;43.850;25.948;2023-04-06T07:25:03;25.15;;;16.10;;
71343;SDS011;59146;43.850;25.948;2023-04-06T07:27:29;24.98;;;15.70;;
71343;SDS011;59146;43.850;25.948;2023-04-06T07:29:54;22.58;;;15.38;;
71343;SDS011;59146;43.850;25.948;2023-04-06T07:32:20;24.42;;;15.95;;
71343;SDS011;59146;43.850;25.948;2023-04-06T07:34:45;24.98;;;15.90;;
71343;SDS011;59146;43.850;25.948;2023-04-06T07:37:11;26.42;;;17.38;;
71343;SDS011;59146;43.850;25.948;2023-04-06T07:39:37;24.02;;;15.15;;
71343;SDS011;59146;43.850;25.948;2023-04-06T07:42:02;26.02;;;16.20;;
71343;SDS011;59146;43.850;25.948;2023-04-06T07:44:28;28.20;;;15.95;;
71343;SDS011;59146;43.850;25.948;2023-04-06T07:46:53;24.98;;;16.13;;
71343;SDS011;59146;43.850;25.948;2023-04-06T07:49:19;25.63;;;17.83;;
71343;SDS011;59146;43.850;25.948;2023-04-06T07:51:45;23.30;;;16.92;;
71343;SDS011;59146;43.850;25.948;2023-04-06T07:54:11;25.23;;;15.77;;
71343;SDS011;59146;43.850;25.948;2023-04-06T07:56:36;24.33;;;15.68;;
71343;SDS011;59146;43.850;25.948;2023-04-06T07:59:02;21.65;;;15.10;;
71343;SDS011;59146;43.850;25.948;2023-04-06T08:01:28;23.70;;;16.38;;
71343;SDS011;59146;43.850;25.948;2023-04-06T08:03:55;28.52;;;16.30;;
71343;SDS011;59146;43.850;25.948;2023-04-06T08:06:21;26.30;;;15.57;;
71343;SDS011;59146;43.850;25.948;2023-04-06T08:08:46;25.45;;;15.20;;
71343;SDS011;59146;43.850;25.948;2023-04-06T08:11:12;27.45;;;15.20;;
71343;SDS011;59146;43.850;25.948;2023-04-06T08:13:38;24.58;;;15.32;;
71343;SDS011;59146;43.850;25.948;2023-04-06T08:16:03;23.52;;;16.17;;
71343;SDS011;59146;43.850;25.948;2023-04-06T08:18:29;27.52;;;16.20;;
71343;SDS011;59146;43.850;25.948;2023-04-06T08:20:55;23.35;;;15.57;;
71343;SDS011;59146;43.850;25.948;2023-04-06T08:23:21;22.00;;;15.23;;
71343;SDS011;59146;43.850;25.948;2023-04-06T08:25:47;23.58;;;15.23;;
71343;SDS011;59146;43.850;25.948;2023-04-06T08:28:13;25.85;;;17.10;;
71343;SDS011;59146;43.850;25.948;2023-04-06T08:30:41;22.90;;;16.25;;
71343;SDS011;59146;43.850;25.948;2023-04-06T08:33:08;21.92;;;14.88;;
71343;SDS011;59146;43.850;25.948;2023-04-06T08:35:34;24.35;;;15.00;;
71343;SDS011;59146;43.850;25.948;2023-04-06T08:38:00;26.92;;;15.35;;
71343;SDS011;59146;43.850;25.948;2023-04-06T08:40:25;25.73;;;14.80;;
71343;SDS011;59146;43.850;25.948;2023-04-06T08:42:52;24.27;;;16.25;;
71343;SDS011;59146;43.850;25.948;2023-04-06T08:45:20;23.40;;;15.95;;
71343;SDS011;59146;43.850;25.948;2023-04-06T08:47:50;24.40;;;15.85;;
71343;SDS011;59146;43.850;25.948;2023-04-06T08:50:17;20.42;;;14.68;;
71343;SDS011;59146;43.850;25.948;2023-04-06T08:52:43;20.45;;;13.90;;
71343;SDS011;59146;43.850;25.948;2023-04-06T08:55:11;20.50;;;14.32;;
71343;SDS011;59146;43.850;25.948;2023-04-06T08:57:36;22.60;;;15.43;;
71343;SDS011;59146;43.850;25.948;2023-04-06T09:00:03;27.27;;;15.48;;
71343;SDS011;59146;43.850;25.948;2023-04-06T09:02:29;21.33;;;15.13;;
71343;SDS011;59146;43.850;25.948;2023-04-06T09:04:55;22.80;;;15.93;;
71343;SDS011;59146;43.850;25.948;2023-04-06T09:07:22;29.25;;;15.88;;
71343;SDS011;59146;43.850;25.948;2023-04-06T09:09:48;25.00;;;15.45;;
71343;SDS011;59146;43.850;25.948;2023-04-06T09:14:53;20.98;;;15.00;;
71343;SDS011;59146;43.850;25.948;2023-04-06T09:17:24;20.55;;;14.70;;
71343;SDS011;59146;43.850;25.948;2023-04-06T09:19:53;24.85;;;15.40;;
71343;SDS011;59146;43.850;25.948;2023-04-06T09:22:19;21.92;;;16.20;;
71343;SDS011;59146;43.850;25.948;2023-04-06T09:24:46;21.13;;;14.65;;
71343;SDS011;59146;43.850;25.948;2023-04-06T09:27:13;21.27;;;16.42;;
71343;SDS011;59146;43.850;25.948;2023-04-06T09:29:40;19.20;;;15.82;;
71343;SDS011;59146;43.850;25.948;2023-04-06T09:32:06;24.38;;;15.55;;
71343;SDS011;59146;43.850;25.948;2023-04-06T09:34:36;23.20;;;14.70;;
71343;SDS011;59146;43.850;25.948;2023-04-06T09:37:15;19.42;;;14.55;;
71343;SDS011;59146;43.850;25.948;2023-04-06T09:39:42;19.80;;;14.52;;
71343;SDS011;59146;43.850;25.948;2023-04-06T09:42:08;22.35;;;15.18;;
71343;SDS011;59146;43.850;25.948;2023-04-06T09:44:34;25.50;;;15.57;;
71343;SDS011;59146;43.850;25.948;2023-04-06T09:47:00;26.20;;;15.30;;
71343;SDS011;59146;43.850;25.948;2023-04-06T09:49:30;19.08;;;15.63;;
71343;SDS011;59146;43.850;25.948;2023-04-06T09:51:58;22.67;;;14.70;;
71343;SDS011;59146;43.850;25.948;2023-04-06T09:54:26;22.98;;;15.23;;
71343;SDS011;59146;43.850;25.948;2023-04-06T09:59:44;22.45;;;15.07;;
71343;SDS011;59146;43.850;25.948;2023-04-06T10:02:35;22.02;;;15.35;;
71343;SDS011;59146;43.850;25.948;2023-04-06T10:05:35;22.63;;;14.68;;
71343;SDS011;59146;43.850;25.948;2023-04-06T10:08:10;28.23;;;14.68;;
71343;SDS011;59146;43.850;25.948;2023-04-06T10:10:36;21.88;;;13.63;;
71343;SDS011;59146;43.850;25.948;2023-04-06T10:13:06;22.40;;;14.48;;
71343;SDS011;59146;43.850;25.948;2023-04-06T10:15:32;20.98;;;14.18;;
71343;SDS011;59146;43.850;25.948;2023-04-06T10:17:58;19.20;;;14.50;;
71343;SDS011;59146;43.850;25.948;2023-04-06T10:20:35;23.75;;;13.90;;
71343;SDS011;59146;43.850;25.948;2023-04-06T10:25:34;20.63;;;13.18;;
71343;SDS011;59146;43.850;25.948;2023-04-06T10:28:01;17.67;;;13.85;;
71343;SDS011;59146;43.850;25.948;2023-04-06T10:30:31;20.60;;;14.25;;
71343;SDS011;59146;43.850;25.948;2023-04-06T10:32:57;21.50;;;14.40;;
71343;SDS011;59146;43.850;25.948;2023-04-06T10:35:23;21.60;;;14.07;;
71343;SDS011;59146;43.850;25.948;2023-04-06T10:40:22;23.35;;;13.95;;
71343;SDS011;59146;43.850;25.948;2023-04-06T10:42:50;21.00;;;13.35;;
71343;SDS011;59146;43.850;25.948;2023-04-06T10:45:20;21.10;;;13.88;;
71343;SDS011;59146;43.850;25.948;2023-04-06T10:47:53;19.13;;;12.45;;
71343;SDS011;59146;43.850;25.948;2023-04-06T10:50:19;24.33;;;13.30;;
71343;SDS011;59146;43.850;25.948;2023-04-06T10:52:46;21.60;;;13.30;;
71343;SDS011;59146;43.850;25.948;2023-04-06T10:55:12;22.73;;;13.38;;
71343;SDS011;59146;43.850;25.948;2023-04-06T10:57:39;22.83;;;13.57;;
71343;SDS011;59146;43.850;25.948;2023-04-06T11:00:05;20.17;;;13.15;;
71343;SDS011;59146;43.850;25.948;2023-04-06T11:02:33;20.80;;;12.57;;
71343;SDS011;59146;43.850;25.948;2023-04-06T11:04:59;18.00;;;12.95;;
71343;SDS011;59146;43.850;25.948;2023-04-06T11:07:25;27.98;;;13.15;;
71343;SDS011;59146;43.850;25.948;2023-04-06T11:09:52;18.05;;;12.32;;
71343;SDS011;59146;43.850;25.948;2023-04-06T11:12:24;20.08;;;12.63;;
71343;SDS011;59146;43.850;25.948;2023-04-06T11:14:55;18.58;;;13.65;;
71343;SDS011;59146;43.850;25.948;2023-04-06T11:17:26;20.30;;;13.43;;
71343;SDS011;59146;43.850;25.948;2023-04-06T11:19:53;22.92;;;13.68;;
71343;SDS011;59146;43.850;25.948;2023-04-06T11:22:19;29.98;;;14.38;;
71343;SDS011;59146;43.850;25.948;2023-04-06T11:24:44;20.08;;;13.82;;
71343;SDS011;59146;43.850;25.948;2023-04-06T11:27:10;21.80;;;13.02;;
71343;SDS011;59146;43.850;25.948;2023-04-06T11:29:35;19.27;;;13.30;;
71343;SDS011;59146;43.850;25.948;2023-04-06T11:32:03;22.65;;;13.40;;
71343;SDS011;59146;43.850;25.948;2023-04-06T11:34:32;19.15;;;12.57;;
71343;SDS011;59146;43.850;25.948;2023-04-06T11:37:08;16.63;;;11.48;;
71343;SDS011;59146;43.850;25.948;2023-04-06T11:39:43;22.67;;;12.63;;
71343;SDS011;59146;43.850;25.948;2023-04-06T11:42:20;20.17;;;11.10;;
71343;SDS011;59146;43.850;25.948;2023-04-06T11:44:51;19.58;;;12.07;;
71343;SDS011;59146;43.850;25.948;2023-04-06T11:47:19;20.92;;;11.30;;
71343;SDS011;59146;43.850;25.948;2023-04-06T11:49:46;18.52;;;10.80;;
71343;SDS011;59146;43.850;25.948;2023-04-06T11:54:43;14.95;;;10.82;;
71343;SDS011;59146;43.850;25.948;2023-04-06T11:57:09;15.98;;;10.52;;
71343;SDS011;59146;43.850;25.948;2023-04-06T11:59:35;17.63;;;10.85;;
71343;SDS011;59146;43.850;25.948;2023-04-06T12:02:01;16.05;;;11.70;;
71343;SDS011;59146;43.850;25.948;2023-04-06T12:04:27;14.90;;;11.15;;
71343;SDS011;59146;43.850;25.948;2023-04-06T12:06:53;15.50;;;11.13;;
71343;SDS011;59146;43.850;25.948;2023-04-06T12:09:19;15.00;;;10.85;;
71343;SDS011;59146;43.850;25.948;2023-04-06T12:11:44;11.82;;;9.52;;
71343;SDS011;59146;43.850;25.948;2023-04-06T12:14:10;19.67;;;10.68;;
71343;SDS011;59146;43.850;25.948;2023-04-06T12:16:36;15.65;;;10.45;;
71343;SDS011;59146;43.850;25.948;2023-04-06T12:19:02;20.10;;;10.18;;
71343;SDS011;59146;43.850;25.948;2023-04-06T12:21:28;17.20;;;10.45;;
71343;SDS011;59146;43.850;25.948;2023-04-06T12:23:54;12.40;;;9.48;;
71343;SDS011;59146;43.850;25.948;2023-04-06T12:26:20;18.35;;;11.05;;
71343;SDS011;59146;43.850;25.948;2023-04-06T12:28:46;14.57;;;10.68;;
71343;SDS011;59146;43.850;25.948;2023-04-06T12:31:15;17.30;;;10.52;;
71343;SDS011;59146;43.850;25.948;2023-04-06T12:33:41;16.15;;;10.93;;
71343;SDS011;59146;43.850;25.948;2023-04-06T12:36:17;14.00;;;10.80;;
71343;SDS011;59146;43.850;25.948;2023-04-06T12:38:44;17.80;;;10.25;;
71343;SDS011;59146;43.850;25.948;2023-04-06T12:41:10;17.65;;;10.98;;
71343;SDS011;59146;43.850;25.948;2023-04-06T12:43:36;15.85;;;10.18;;
71343;SDS011;59146;43.850;25.948;2023-04-06T12:46:02;14.20;;;10.85;;
71343;SDS011;59146;43.850;25.948;2023-04-06T12:48:28;12.48;;;9.80;;
71343;SDS011;59146;43.850;25.948;2023-04-06T12:50:56;13.35;;;9.70;;
71343;SDS011;59146;43.850;25.948;2023-04-06T12:53:23;14.68;;;9.07;;
71343;SDS011;59146;43.850;25.948;2023-04-06T12:55:48;13.15;;;10.57;;
71343;SDS011;59146;43.850;25.948;2023-04-06T12:58:14;16.58;;;10.57;;
71343;SDS011;59146;43.850;25.948;2023-04-06T13:00:40;13.25;;;9.57;;
71343;SDS011;59146;43.850;25.948;2023-04-06T13:03:05;14.60;;;9.65;;
71343;SDS011;59146;43.850;25.948;2023-04-06T13:05:31;11.00;;;9.13;;
71343;SDS011;59146;43.850;25.948;2023-04-06T13:07:56;20.42;;;8.77;;
71343;SDS011;59146;43.850;25.948;2023-04-06T13:10:22;13.43;;;8.43;;
71343;SDS011;59146;43.850;25.948;2023-04-06T13:12:47;19.40;;;8.65;;
71343;SDS011;59146;43.850;25.948;2023-04-06T13:15:13;13.52;;;8.90;;
71343;SDS011;59146;43.850;25.948;2023-04-06T13:17:38;12.00;;;8.13;;
71343;SDS011;59146;43.850;25.948;2023-04-06T13:20:04;14.55;;;7.88;;
71343;SDS011;59146;43.850;25.948;2023-04-06T13:22:31;12.60;;;8.07;;
71343;SDS011;59146;43.850;25.948;2023-04-06T13:24:56;10.80;;;7.65;;
71343;SDS011;59146;43.850;25.948;2023-04-06T13:27:22;10.05;;;7.93;;
71343;SDS011;59146;43.850;25.948;2023-04-06T13:29:47;10.95;;;8.10;;
71343;SDS011;59146;43.850;25.948;2023-04-06T13:32:13;11.38;;;8.18;;
71343;SDS011;59146;43.850;25.948;2023-04-06T13:34:38;16.10;;;8.63;;
71343;SDS011;59146;43.850;25.948;2023-04-06T13:37:05;12.52;;;7.45;;
71343;SDS011;59146;43.850;25.948;2023-04-06T13:39:31;14.18;;;7.68;;
71343;SDS011;59146;43.850;25.948;2023-04-06T13:41:57;11.70;;;7.10;;
71343;SDS011;59146;43.850;25.948;2023-04-06T13:44:22;11.48;;;8.30;;
71343;SDS011;59146;43.850;25.948;2023-04-06T13:46:48;12.32;;;7.72;;
71343;SDS011;59146;43.850;25.948;2023-04-06T13:49:13;18.58;;;7.18;;
71343;SDS011;59146;43.850;25.948;2023-04-06T13:51:40;11.02;;;6.32;;
71343;SDS011;59146;43.850;25.948;2023-04-06T13:54:06;13.82;;;6.75;;
71343;SDS011;59146;43.850;25.948;2023-04-06T13:56:31;12.23;;;6.93;;
71343;SDS011;59146;43.850;25.948;2023-04-06T13:58:57;11.07;;;6.07;;
71343;SDS011;59146;43.850;25.948;2023-04-06T14:01:22;14.52;;;5.90;;
71343;SDS011;59146;43.850;25.948;2023-04-06T14:03:48;9.88;;;6.93;;
71343;SDS011;59146;43.850;25.948;2023-04-06T14:06:14;10.77;;;6.28;;
71343;SDS011;59146;43.850;25.948;2023-04-06T14:08:39;12.40;;;6.72;;
71343;SDS011;59146;43.850;25.948;2023-04-06T14:11:06;15.77;;;6.63;;
71343;SDS011;59146;43.850;25.948;2023-04-06T14:13:36;14.70;;;7.20;;
71343;SDS011;59146;43.850;25.948;2023-04-06T14:16:02;12.10;;;6.32;;
71343;SDS011;59146;43.850;25.948;2023-04-06T14:18:28;16.25;;;7.63;;